createdAt,value
2023-12-11T00:00:45.446Z,980.54
2023-12-11T00:01:45.484Z,980.52
2023-12-11T00:02:47.832Z,980.55
2023-12-11T00:03:45.355Z,980.59
2023-12-11T00:04:45.335Z,980.62
2023-12-11T00:05:45.341Z,980.62
2023-12-11T00:06:45.324Z,980.62
2023-12-11T00:07:45.301Z,980.62
2023-12-11T00:08:45.297Z,980.63
2023-12-11T00:09:45.309Z,980.62
2023-12-11T00:10:45.275Z,980.65
2023-12-11T00:11:45.284Z,980.63
2023-12-11T00:12:45.265Z,980.61
2023-12-11T00:13:45.238Z,980.63
2023-12-11T00:14:45.232Z,980.67
2023-12-11T00:15:45.238Z,980.66
2023-12-11T00:16:45.246Z,980.65
2023-12-11T00:17:45.281Z,980.66
2023-12-11T00:18:45.382Z,980.67
2023-12-11T00:19:45.207Z,980.66
2023-12-11T00:20:45.173Z,980.65
2023-12-11T00:21:45.172Z,980.67
2023-12-11T00:22:45.172Z,980.68
2023-12-11T00:23:45.136Z,980.69
2023-12-11T00:24:45.162Z,980.71
2023-12-11T00:25:45.113Z,980.72
2023-12-11T00:26:45.135Z,980.72
2023-12-11T00:27:45.136Z,980.69
2023-12-11T00:28:45.090Z,980.69
2023-12-11T00:29:45.085Z,980.69
2023-12-11T00:30:45.091Z,980.66
2023-12-11T00:31:45.067Z,980.70
2023-12-11T00:32:45.106Z,980.69
2023-12-11T00:33:45.143Z,980.72
2023-12-11T00:34:45.137Z,980.70
2023-12-11T00:35:45.013Z,980.69
2023-12-11T00:36:45.051Z,980.70
2023-12-11T00:37:44.995Z,980.70
2023-12-11T00:38:44.991Z,980.65
2023-12-11T00:39:45.042Z,980.69
2023-12-11T00:40:44.963Z,980.70
2023-12-11T00:41:44.991Z,980.70
2023-12-11T00:42:44.982Z,980.72
2023-12-11T00:43:46.599Z,980.71
2023-12-11T00:44:44.929Z,980.71
2023-12-11T00:45:44.927Z,980.71
2023-12-11T00:46:44.942Z,980.70
2023-12-11T00:47:45.010Z,980.71
2023-12-11T00:48:45.060Z,980.72
2023-12-11T00:49:44.958Z,980.72
2023-12-11T00:50:44.883Z,980.72
2023-12-11T00:51:44.922Z,980.74
2023-12-11T00:52:44.884Z,980.74
2023-12-11T00:53:44.850Z,980.74
2023-12-11T00:54:44.872Z,980.73
2023-12-11T00:55:44.811Z,980.71
2023-12-11T00:56:44.816Z,980.72
2023-12-11T00:57:44.801Z,980.75
2023-12-11T00:58:44.815Z,980.73
2023-12-11T00:59:44.826Z,980.77
2023-12-11T01:00:44.796Z,980.77
2023-12-11T01:01:44.832Z,980.79
2023-12-11T01:02:44.746Z,980.81
2023-12-11T01:03:44.919Z,980.80
2023-12-11T01:04:44.795Z,980.80
2023-12-11T01:05:44.737Z,980.80
2023-12-11T01:06:44.776Z,980.82
2023-12-11T01:07:44.682Z,980.82
2023-12-11T01:08:44.694Z,980.78
2023-12-11T01:09:44.683Z,980.78
2023-12-11T01:10:44.667Z,980.80
2023-12-11T01:11:44.660Z,980.81
2023-12-11T01:12:44.683Z,980.82
2023-12-11T01:13:44.623Z,980.85
2023-12-11T01:14:44.624Z,980.86
2023-12-11T01:15:44.615Z,980.87
2023-12-11T01:16:44.617Z,980.87
2023-12-11T01:17:44.624Z,980.88
2023-12-11T01:18:44.651Z,980.85
2023-12-11T01:19:44.872Z,980.90
2023-12-11T01:20:44.559Z,980.91
2023-12-11T01:21:44.595Z,980.94
2023-12-11T01:22:44.554Z,980.96
2023-12-11T01:23:44.533Z,981.00
2023-12-11T01:24:44.545Z,980.97
2023-12-11T01:25:44.524Z,980.96
2023-12-11T01:26:44.504Z,980.97
2023-12-11T01:27:44.497Z,980.95
2023-12-11T01:28:44.496Z,980.91
2023-12-11T01:29:44.494Z,980.94
2023-12-11T01:30:44.468Z,980.94
2023-12-11T01:31:44.458Z,980.93
2023-12-11T01:32:44.461Z,980.94
2023-12-11T01:33:44.470Z,980.96
2023-12-11T01:34:44.489Z,980.99
2023-12-11T01:35:44.405Z,981.00
2023-12-11T01:36:44.454Z,981.03
2023-12-11T01:37:44.379Z,981.04
2023-12-11T01:38:44.364Z,981.08
2023-12-11T01:39:44.395Z,981.07
2023-12-11T01:40:44.353Z,981.07
2023-12-11T01:41:44.354Z,981.11
2023-12-11T01:42:44.363Z,981.10
2023-12-11T01:43:44.369Z,981.09
2023-12-11T01:44:44.381Z,981.11
2023-12-11T01:45:44.332Z,981.12
2023-12-11T01:46:44.321Z,981.11
2023-12-11T01:47:44.336Z,981.11
2023-12-11T01:48:44.435Z,981.11
2023-12-11T01:49:44.286Z,981.13
2023-12-11T01:50:44.262Z,981.14
2023-12-11T01:51:44.282Z,981.16
2023-12-11T01:52:44.234Z,981.17
2023-12-11T01:53:44.216Z,981.17
2023-12-11T01:54:44.216Z,981.15
2023-12-11T01:55:44.196Z,981.15
2023-12-11T01:56:44.241Z,981.17
2023-12-11T01:57:44.199Z,981.22
2023-12-11T01:58:44.175Z,981.21
2023-12-11T01:59:46.782Z,981.21
2023-12-11T02:00:44.211Z,981.22
2023-12-11T02:01:44.229Z,981.23
2023-12-11T02:02:44.130Z,981.24
2023-12-11T02:03:44.167Z,981.27
2023-12-11T02:04:44.221Z,981.25
2023-12-11T02:05:44.182Z,981.23
2023-12-11T02:06:44.150Z,981.23
2023-12-11T02:07:44.068Z,981.18
2023-12-11T02:08:44.066Z,981.21
2023-12-11T02:09:44.072Z,981.21
2023-12-11T02:10:44.064Z,981.21
2023-12-11T02:11:46.531Z,981.19
2023-12-11T02:12:44.114Z,981.20
2023-12-11T02:13:44.015Z,981.20
2023-12-11T02:14:44.004Z,981.19
2023-12-11T02:15:44.102Z,981.16
2023-12-11T02:16:44.051Z,981.14
2023-12-11T02:17:44.013Z,981.13
2023-12-11T02:18:44.048Z,981.13
2023-12-11T02:19:44.068Z,981.16
2023-12-11T02:20:43.945Z,981.19
2023-12-11T02:21:43.944Z,981.18
2023-12-11T02:22:43.949Z,981.19
2023-12-11T02:23:43.909Z,981.20
2023-12-11T02:24:43.936Z,981.21
2023-12-11T02:25:43.888Z,981.19
2023-12-11T02:26:43.900Z,981.19
2023-12-11T02:27:43.868Z,981.14
2023-12-11T02:28:43.864Z,981.13
2023-12-11T02:29:43.853Z,981.11
2023-12-11T02:30:43.894Z,981.02
2023-12-11T02:31:43.843Z,980.95
2023-12-11T02:32:43.851Z,980.91
2023-12-11T02:33:43.902Z,980.89
2023-12-11T02:34:43.950Z,980.91
2023-12-11T02:35:43.788Z,980.91
2023-12-11T02:36:43.811Z,980.94
2023-12-11T02:37:44.221Z,980.95
2023-12-11T02:38:43.783Z,980.97
2023-12-11T02:39:43.753Z,980.99
2023-12-11T02:40:43.736Z,980.97
2023-12-11T02:41:43.722Z,980.94
2023-12-11T02:42:43.776Z,980.97
2023-12-11T02:43:43.703Z,980.97
2023-12-11T02:44:43.697Z,980.99
2023-12-11T02:45:43.738Z,981.01
2023-12-11T02:46:43.697Z,981.03
2023-12-11T02:47:43.747Z,981.06
2023-12-11T02:48:43.830Z,981.09
2023-12-11T02:49:43.648Z,981.07
2023-12-11T02:50:43.732Z,981.01
2023-12-11T02:51:43.650Z,981.02
2023-12-11T02:52:43.625Z,981.03
2023-12-11T02:53:43.602Z,981.01
2023-12-11T02:54:43.623Z,980.99
2023-12-11T02:55:43.586Z,980.98
2023-12-11T02:56:43.612Z,980.97
2023-12-11T02:57:43.613Z,981.00
2023-12-11T02:58:43.555Z,980.99
2023-12-11T02:59:43.539Z,980.93
2023-12-11T03:00:43.698Z,980.88
2023-12-11T03:01:43.557Z,980.86
2023-12-11T03:02:43.544Z,980.90
2023-12-11T03:03:43.551Z,980.95
2023-12-11T03:04:43.614Z,980.94
2023-12-11T03:05:43.581Z,980.94
2023-12-11T03:06:43.529Z,980.94
2023-12-11T03:07:43.471Z,980.92
2023-12-11T03:08:43.481Z,980.92
2023-12-11T03:09:43.472Z,980.90
2023-12-11T03:10:43.557Z,980.86
2023-12-11T03:11:43.414Z,980.84
2023-12-11T03:12:43.419Z,980.80
2023-12-11T03:13:43.430Z,980.79
2023-12-11T03:14:43.405Z,980.78
2023-12-11T03:15:43.456Z,980.74
2023-12-11T03:16:43.368Z,980.72
2023-12-11T03:17:43.399Z,980.71
2023-12-11T03:18:43.535Z,980.71
2023-12-11T03:19:43.419Z,980.71
2023-12-11T03:20:43.346Z,980.70
2023-12-11T03:21:43.364Z,980.73
2023-12-11T03:22:43.326Z,980.75
2023-12-11T03:23:43.318Z,980.80
2023-12-11T03:24:43.313Z,980.82
2023-12-11T03:25:43.277Z,980.84
2023-12-11T03:26:43.270Z,980.84
2023-12-11T03:27:43.312Z,980.83
2023-12-11T03:28:43.250Z,980.84
2023-12-11T03:29:43.243Z,980.84
2023-12-11T03:30:43.271Z,980.82
2023-12-11T03:31:43.221Z,980.79
2023-12-11T03:32:43.212Z,980.81
2023-12-11T03:33:43.268Z,980.83
2023-12-11T03:34:43.230Z,980.82
2023-12-11T03:35:43.179Z,980.80
2023-12-11T03:36:43.182Z,980.80
2023-12-11T03:37:43.152Z,980.80
2023-12-11T03:38:43.143Z,980.78
2023-12-11T03:39:43.663Z,980.74
2023-12-11T03:40:43.152Z,980.77
2023-12-11T03:41:43.112Z,980.88
2023-12-11T03:42:44.909Z,980.89
2023-12-11T03:43:43.095Z,980.84
2023-12-11T03:44:43.105Z,980.88
2023-12-11T03:45:43.116Z,980.91
2023-12-11T03:46:43.073Z,980.89
2023-12-11T03:47:43.049Z,980.89
2023-12-11T03:48:43.161Z,980.87
2023-12-11T03:49:43.133Z,980.89
2023-12-11T03:50:43.071Z,980.90
2023-12-11T03:51:43.042Z,980.91
2023-12-11T03:52:43.010Z,980.91
2023-12-11T03:53:42.983Z,980.89
2023-12-11T03:54:43.008Z,980.91
2023-12-11T03:55:42.967Z,980.91
2023-12-11T03:56:43.434Z,980.93
2023-12-11T03:57:42.969Z,980.94
2023-12-11T03:58:42.944Z,980.96
2023-12-11T03:59:42.932Z,980.94
2023-12-11T04:00:43.017Z,980.93
2023-12-11T04:01:43.035Z,980.93
2023-12-11T04:02:42.944Z,980.92
2023-12-11T04:03:43.013Z,980.93
2023-12-11T04:04:42.945Z,980.91
2023-12-11T04:05:42.902Z,980.93
2023-12-11T04:06:42.901Z,980.94
2023-12-11T04:07:42.859Z,980.93
2023-12-11T04:08:42.839Z,980.95
2023-12-11T04:09:42.833Z,980.94
2023-12-11T04:10:42.820Z,980.96
2023-12-11T04:11:43.426Z,980.98
2023-12-11T04:12:42.842Z,981.01
2023-12-11T04:13:42.782Z,980.98
2023-12-11T04:14:42.795Z,980.99
2023-12-11T04:15:42.778Z,980.93
2023-12-11T04:16:42.805Z,980.90
2023-12-11T04:17:42.789Z,980.91
2023-12-11T04:18:42.848Z,980.88
2023-12-11T04:19:42.836Z,980.91
2023-12-11T04:20:42.722Z,980.85
2023-12-11T04:21:42.800Z,980.80
2023-12-11T04:22:42.716Z,980.75
2023-12-11T04:23:42.687Z,980.71
2023-12-11T04:24:42.716Z,980.67
2023-12-11T04:25:42.667Z,980.67
2023-12-11T04:26:42.660Z,980.65
2023-12-11T04:27:42.686Z,980.62
2023-12-11T04:28:42.639Z,980.62
2023-12-11T04:29:42.624Z,980.61
2023-12-11T04:30:42.672Z,980.58
2023-12-11T04:31:42.601Z,980.55
2023-12-11T04:32:42.685Z,980.55
2023-12-11T04:33:42.776Z,980.52
2023-12-11T04:34:42.655Z,980.50
2023-12-11T04:35:42.564Z,980.46
2023-12-11T04:36:42.638Z,980.44
2023-12-11T04:37:42.573Z,980.43
2023-12-11T04:38:42.551Z,980.40
2023-12-11T04:39:42.518Z,980.36
2023-12-11T04:40:42.515Z,980.31
2023-12-11T04:41:42.501Z,980.32
2023-12-11T04:42:42.503Z,980.34
2023-12-11T04:43:42.508Z,980.35
2023-12-11T04:44:42.469Z,980.40
2023-12-11T04:45:42.471Z,980.41
2023-12-11T04:46:42.454Z,980.40
2023-12-11T04:47:42.470Z,980.41
2023-12-11T04:48:42.494Z,980.39
2023-12-11T04:49:42.561Z,980.38
2023-12-11T04:50:42.424Z,980.39
2023-12-11T04:51:42.424Z,980.42
2023-12-11T04:52:42.407Z,980.44
2023-12-11T04:53:42.375Z,980.46
2023-12-11T04:54:42.456Z,980.49
2023-12-11T04:55:42.482Z,980.46
2023-12-11T04:56:42.348Z,980.42
2023-12-11T04:57:42.345Z,980.40
2023-12-11T04:58:42.320Z,980.39
2023-12-11T04:59:44.285Z,980.40
2023-12-11T05:00:42.421Z,980.42
2023-12-11T05:01:42.368Z,980.41
2023-12-11T05:02:42.346Z,980.35
2023-12-11T05:03:42.275Z,980.34
2023-12-11T05:04:42.376Z,980.29
2023-12-11T05:05:42.274Z,980.30
2023-12-11T05:06:42.293Z,980.25
2023-12-11T05:07:42.224Z,980.25
2023-12-11T05:08:42.322Z,980.30
2023-12-11T05:09:42.274Z,980.34
2023-12-11T05:10:42.265Z,980.32
2023-12-11T05:11:42.339Z,980.32
2023-12-11T05:12:42.285Z,980.34
2023-12-11T05:13:42.217Z,980.32
2023-12-11T05:14:42.162Z,980.27
2023-12-11T05:15:42.258Z,980.32
2023-12-11T05:16:42.273Z,980.31
2023-12-11T05:17:42.304Z,980.33
2023-12-11T05:18:42.304Z,980.31
2023-12-11T05:19:42.227Z,980.30
2023-12-11T05:20:42.121Z,980.28
2023-12-11T05:21:42.118Z,980.30
2023-12-11T05:22:42.104Z,980.27
2023-12-11T05:23:42.086Z,980.27
2023-12-11T05:24:42.091Z,980.28
2023-12-11T05:25:42.060Z,980.26
2023-12-11T05:26:42.055Z,980.26
2023-12-11T05:27:42.119Z,980.24
2023-12-11T05:28:42.017Z,980.21
2023-12-11T05:29:41.999Z,980.21
2023-12-11T05:30:42.050Z,980.22
2023-12-11T05:31:41.979Z,980.20
2023-12-11T05:32:42.038Z,980.17
2023-12-11T05:33:42.075Z,980.17
2023-12-11T05:34:42.032Z,980.18
2023-12-11T05:35:41.965Z,980.17
2023-12-11T05:36:42.002Z,980.17
2023-12-11T05:37:41.926Z,980.14
2023-12-11T05:38:41.927Z,980.08
2023-12-11T05:39:47.342Z,980.05
2023-12-11T05:40:41.955Z,980.02
2023-12-11T05:41:41.888Z,979.97
2023-12-11T05:42:41.912Z,979.96
2023-12-11T05:43:41.902Z,979.97
2023-12-11T05:44:41.848Z,980.03
2023-12-11T05:45:41.874Z,980.00
2023-12-11T05:46:41.851Z,979.99
2023-12-11T05:47:41.837Z,980.02
2023-12-11T05:48:42.042Z,980.00
2023-12-11T05:49:41.915Z,979.96
2023-12-11T05:50:41.856Z,979.95
2023-12-11T05:51:41.802Z,979.91
2023-12-11T05:52:41.798Z,979.89
2023-12-11T05:53:41.797Z,979.86
2023-12-11T05:54:41.813Z,979.89
2023-12-11T05:55:41.757Z,979.94
2023-12-11T05:56:41.767Z,979.87
2023-12-11T05:57:41.768Z,979.85
2023-12-11T05:58:41.701Z,979.82
2023-12-11T05:59:41.707Z,979.82
2023-12-11T06:00:43.269Z,979.81
2023-12-11T06:01:41.773Z,979.84
2023-12-11T06:02:41.743Z,979.84
2023-12-11T06:03:41.684Z,979.85
2023-12-11T06:04:41.647Z,979.89
2023-12-11T06:05:41.798Z,979.91
2023-12-11T06:06:41.673Z,979.89
2023-12-11T06:07:41.655Z,979.91
2023-12-11T06:08:41.627Z,979.87
2023-12-11T06:09:41.707Z,979.82
2023-12-11T06:10:41.595Z,979.82
2023-12-11T06:11:41.654Z,979.77
2023-12-11T06:12:41.594Z,979.73
2023-12-11T06:13:41.579Z,979.68
2023-12-11T06:14:43.881Z,979.67
2023-12-11T06:15:41.619Z,979.71
2023-12-11T06:16:41.536Z,979.73
2023-12-11T06:17:41.656Z,979.74
2023-12-11T06:18:41.585Z,979.77
2023-12-11T06:19:41.540Z,979.77
2023-12-11T06:20:41.515Z,979.77
2023-12-11T06:21:41.510Z,979.74
2023-12-11T06:22:41.468Z,979.73
2023-12-11T06:23:41.462Z,979.70
2023-12-11T06:24:42.112Z,979.74
2023-12-11T06:25:41.476Z,979.60
2023-12-11T06:26:41.433Z,979.66
2023-12-11T06:27:41.434Z,979.63
2023-12-11T06:28:41.423Z,979.64
2023-12-11T06:29:41.434Z,979.63
2023-12-11T06:30:41.460Z,979.57
2023-12-11T06:31:41.387Z,979.55
2023-12-11T06:32:41.394Z,979.49
2023-12-11T06:33:41.426Z,979.52
2023-12-11T06:34:41.434Z,979.51
2023-12-11T06:35:41.402Z,979.50
2023-12-11T06:36:41.355Z,979.57
2023-12-11T06:37:41.326Z,979.57
2023-12-11T06:38:41.304Z,979.63
2023-12-11T06:39:41.307Z,979.68
2023-12-11T06:40:41.288Z,979.72
2023-12-11T06:41:41.296Z,979.67
2023-12-11T06:42:41.334Z,979.62
2023-12-11T06:43:41.213Z,979.53
2023-12-11T06:44:41.203Z,979.55
2023-12-11T06:45:41.236Z,979.56
2023-12-11T06:46:41.212Z,979.57
2023-12-11T06:47:41.168Z,979.52
2023-12-11T06:48:41.297Z,979.52
2023-12-11T06:49:41.272Z,979.52
2023-12-11T06:50:41.184Z,979.52
2023-12-11T06:51:41.242Z,979.50
2023-12-11T06:52:41.164Z,979.42
2023-12-11T06:53:41.117Z,979.49
2023-12-11T06:54:41.138Z,979.49
2023-12-11T06:55:41.111Z,979.49
2023-12-11T06:56:41.109Z,979.51
2023-12-11T06:57:41.175Z,979.51
2023-12-11T06:58:41.071Z,979.53
2023-12-11T06:59:41.058Z,979.54
2023-12-11T07:00:41.274Z,979.54
2023-12-11T07:01:41.472Z,979.48
2023-12-11T07:02:41.117Z,979.51
2023-12-11T07:03:41.190Z,979.53
2023-12-11T07:04:41.082Z,979.51
2023-12-11T07:05:41.126Z,979.46
2023-12-11T07:06:41.111Z,979.42
2023-12-11T07:07:41.013Z,979.44
2023-12-11T07:08:40.944Z,979.39
2023-12-11T07:09:41.018Z,979.40
2023-12-11T07:10:40.934Z,979.41
2023-12-11T07:11:40.947Z,979.43
2023-12-11T07:12:41.003Z,979.46
2023-12-11T07:13:41.184Z,979.50
2023-12-11T07:14:40.893Z,979.51
2023-12-11T07:15:41.049Z,979.52
2023-12-11T07:16:41.062Z,979.50
2023-12-11T07:17:41.186Z,979.47
2023-12-11T07:18:41.215Z,979.47
2023-12-11T07:19:41.014Z,979.47
2023-12-11T07:20:40.864Z,979.44
2023-12-11T07:21:40.848Z,979.51
2023-12-11T07:22:40.806Z,979.54
2023-12-11T07:23:41.118Z,979.53
2023-12-11T07:24:40.829Z,979.52
2023-12-11T07:25:40.858Z,979.56
2023-12-11T07:26:40.779Z,979.51
2023-12-11T07:27:40.788Z,979.54
2023-12-11T07:28:40.756Z,979.51
2023-12-11T07:29:40.740Z,979.58
2023-12-11T07:30:40.782Z,979.58
2023-12-11T07:31:40.717Z,979.54
2023-12-11T07:32:40.715Z,979.49
2023-12-11T07:33:40.825Z,979.55
2023-12-11T07:34:40.798Z,979.58
2023-12-11T07:35:40.678Z,979.64
2023-12-11T07:36:40.714Z,979.64
2023-12-11T07:37:40.666Z,979.64
2023-12-11T07:38:40.691Z,979.68
2023-12-11T07:39:40.652Z,979.66
2023-12-11T07:40:40.624Z,979.64
2023-12-11T07:41:40.615Z,979.72
2023-12-11T07:42:40.632Z,979.74
2023-12-11T07:43:40.621Z,979.72
2023-12-11T07:44:40.597Z,979.70
2023-12-11T07:45:40.624Z,979.71
2023-12-11T07:46:42.774Z,979.73
2023-12-11T07:47:40.655Z,979.71
2023-12-11T07:48:40.695Z,979.71
2023-12-11T07:49:40.622Z,979.72
2023-12-11T07:50:40.517Z,979.66
2023-12-11T07:51:40.552Z,979.72
2023-12-11T07:52:40.501Z,979.76
2023-12-11T07:53:40.494Z,979.77
2023-12-11T07:54:40.541Z,979.76
2023-12-11T07:55:40.527Z,979.75
2023-12-11T07:56:40.461Z,979.77
2023-12-11T07:57:40.488Z,979.78
2023-12-11T07:58:40.441Z,979.77
2023-12-11T07:59:40.430Z,979.75
2023-12-11T08:00:40.437Z,979.72
2023-12-11T08:01:40.596Z,979.67
2023-12-11T08:02:40.401Z,979.71
2023-12-11T08:03:40.462Z,979.71
2023-12-11T08:04:40.552Z,979.71
2023-12-11T08:05:40.394Z,979.68
2023-12-11T08:06:40.371Z,979.66
2023-12-11T08:07:40.371Z,979.65
2023-12-11T08:08:40.334Z,979.66
2023-12-11T08:09:40.374Z,979.64
2023-12-11T08:10:40.369Z,979.64
2023-12-11T08:11:40.343Z,979.65
2023-12-11T08:12:40.353Z,979.66
2023-12-11T08:13:40.296Z,979.61
2023-12-11T08:14:40.279Z,979.60
2023-12-11T08:15:40.297Z,979.63
2023-12-11T08:16:40.259Z,979.59
2023-12-11T08:17:40.280Z,979.60
2023-12-11T08:18:40.297Z,979.60
2023-12-11T08:19:40.333Z,979.55
2023-12-11T08:20:40.220Z,979.62
2023-12-11T08:21:40.222Z,979.63
2023-12-11T08:22:40.192Z,979.61
2023-12-11T08:23:40.546Z,979.64
2023-12-11T08:24:40.186Z,979.64
2023-12-11T08:25:40.173Z,979.66
2023-12-11T08:26:40.193Z,979.63
2023-12-11T08:27:40.184Z,979.66
2023-12-11T08:28:40.134Z,979.65
2023-12-11T08:29:40.145Z,979.63
2023-12-11T08:30:40.165Z,979.68
2023-12-11T08:31:40.116Z,979.68
2023-12-11T08:32:40.295Z,979.70
2023-12-11T08:33:40.166Z,979.69
2023-12-11T08:34:40.206Z,979.70
2023-12-11T08:35:40.070Z,979.68
2023-12-11T08:36:40.069Z,979.64
2023-12-11T08:37:40.064Z,979.63
2023-12-11T08:38:40.036Z,979.67
2023-12-11T08:39:40.081Z,979.70
2023-12-11T08:40:40.024Z,979.72
2023-12-11T08:41:40.009Z,979.72
2023-12-11T08:42:41.549Z,979.76
2023-12-11T08:43:39.986Z,979.77
2023-12-11T08:44:39.977Z,979.75
2023-12-11T08:45:40.024Z,979.72
2023-12-11T08:46:39.948Z,979.72
2023-12-11T08:47:40.537Z,979.72
2023-12-11T08:48:40.024Z,979.70
2023-12-11T08:49:40.047Z,979.71
2023-12-11T08:50:39.924Z,979.73
2023-12-11T08:51:39.941Z,979.74
2023-12-11T08:52:39.891Z,979.75
2023-12-11T08:53:39.888Z,979.75
2023-12-11T08:54:39.894Z,979.79
2023-12-11T08:55:39.887Z,979.80
2023-12-11T08:56:39.845Z,979.80
2023-12-11T08:57:39.866Z,979.81
2023-12-11T08:58:39.849Z,979.81
2023-12-11T08:59:39.830Z,979.82
2023-12-11T09:00:39.912Z,979.81
2023-12-11T09:01:39.908Z,979.80
2023-12-11T09:02:39.814Z,979.82
2023-12-11T09:03:39.841Z,979.81
2023-12-11T09:04:39.829Z,979.78
2023-12-11T09:05:39.816Z,979.78
2023-12-11T09:06:39.764Z,979.84
2023-12-11T09:07:39.757Z,979.80
2023-12-11T09:08:39.742Z,979.81
2023-12-11T09:09:39.782Z,979.80
2023-12-11T09:10:39.713Z,979.78
2023-12-11T09:11:39.789Z,979.80
2023-12-11T09:12:39.761Z,979.79
2023-12-11T09:13:39.679Z,979.81
2023-12-11T09:14:39.674Z,979.81
2023-12-11T09:15:39.777Z,979.83
2023-12-11T09:16:39.656Z,979.78
2023-12-11T09:17:39.655Z,979.75
2023-12-11T09:18:39.808Z,979.74
2023-12-11T09:19:44.798Z,979.75
2023-12-11T09:20:39.708Z,979.78
2023-12-11T09:21:39.646Z,979.74
2023-12-11T09:22:39.580Z,979.71
2023-12-11T09:23:39.587Z,979.72
2023-12-11T09:24:39.599Z,979.76
2023-12-11T09:25:39.571Z,979.73
2023-12-11T09:26:39.547Z,979.74
2023-12-11T09:27:39.574Z,979.75
2023-12-11T09:28:48.260Z,979.74
2023-12-11T09:29:39.524Z,979.74
2023-12-11T09:30:39.580Z,979.76
2023-12-11T09:31:39.502Z,979.72
2023-12-11T09:32:39.598Z,979.71
2023-12-11T09:33:39.606Z,979.66
2023-12-11T09:34:39.618Z,979.69
2023-12-11T09:35:39.498Z,979.68
2023-12-11T09:36:39.474Z,979.68
2023-12-11T09:37:39.453Z,979.62
2023-12-11T09:38:39.420Z,979.59
2023-12-11T09:39:39.459Z,979.65
2023-12-11T09:40:39.392Z,979.69
2023-12-11T09:41:39.391Z,979.73
2023-12-11T09:42:39.469Z,979.69
2023-12-11T09:43:39.405Z,979.66
2023-12-11T09:44:39.428Z,979.68
2023-12-11T09:45:39.395Z,979.68
2023-12-11T09:46:39.329Z,979.63
2023-12-11T09:47:39.372Z,979.61
2023-12-11T09:48:39.537Z,979.67
2023-12-11T09:49:39.521Z,979.67
2023-12-11T09:50:39.477Z,979.65
2023-12-11T09:51:39.353Z,979.67
2023-12-11T09:52:39.275Z,979.69
2023-12-11T09:53:39.274Z,979.67
2023-12-11T09:54:39.284Z,979.66
2023-12-11T09:55:39.245Z,979.64
2023-12-11T09:56:39.241Z,979.62
2023-12-11T09:57:39.261Z,979.62
2023-12-11T09:58:39.229Z,979.62
2023-12-11T09:59:39.196Z,979.58
2023-12-11T10:00:39.237Z,979.62
2023-12-11T10:01:39.233Z,979.60
2023-12-11T10:02:39.240Z,979.60
2023-12-11T10:03:39.314Z,979.58
2023-12-11T10:04:39.146Z,979.55
2023-12-11T10:05:39.206Z,979.56
2023-12-11T10:06:39.143Z,979.53
2023-12-11T10:07:39.122Z,979.55
2023-12-11T10:08:39.145Z,979.51
2023-12-11T10:09:39.133Z,979.52
2023-12-11T10:10:39.103Z,979.47
2023-12-11T10:11:39.067Z,979.51
2023-12-11T10:12:39.104Z,979.51
2023-12-11T10:13:39.117Z,979.48
2023-12-11T10:14:39.060Z,979.46
2023-12-11T10:15:39.071Z,979.51
2023-12-11T10:16:39.018Z,979.47
2023-12-11T10:17:39.076Z,979.44
2023-12-11T10:18:39.169Z,979.45
2023-12-11T10:19:39.134Z,979.45
2023-12-11T10:20:39.315Z,979.44
2023-12-11T10:21:39.073Z,979.47
2023-12-11T10:22:38.967Z,979.44
2023-12-11T10:23:38.966Z,979.47
2023-12-11T10:24:38.985Z,979.43
2023-12-11T10:25:38.974Z,979.42
2023-12-11T10:26:38.948Z,979.41
2023-12-11T10:27:38.970Z,979.41
2023-12-11T10:28:38.901Z,979.39
2023-12-11T10:29:38.911Z,979.40
2023-12-11T10:30:38.931Z,979.38
2023-12-11T10:31:38.868Z,979.38
2023-12-11T10:32:38.913Z,979.40
2023-12-11T10:33:38.999Z,979.40
2023-12-11T10:34:38.936Z,979.30
2023-12-11T10:35:38.881Z,979.33
2023-12-11T10:36:38.871Z,979.40
2023-12-11T10:37:38.794Z,979.43
2023-12-11T10:38:38.801Z,979.37
2023-12-11T10:39:38.828Z,979.40
2023-12-11T10:40:38.814Z,979.39
2023-12-11T10:41:38.767Z,979.40
2023-12-11T10:42:38.779Z,979.45
2023-12-11T10:43:50.744Z,979.44
2023-12-11T10:44:46.873Z,979.45
2023-12-11T10:45:38.774Z,979.43
2023-12-11T10:46:38.767Z,979.38
2023-12-11T10:47:38.711Z,979.43
2023-12-11T10:48:38.878Z,979.44
2023-12-11T10:49:38.714Z,979.43
2023-12-11T10:50:38.707Z,979.44
2023-12-11T10:51:38.681Z,979.44
2023-12-11T10:52:38.710Z,979.48
2023-12-11T10:53:38.642Z,979.46
2023-12-11T10:54:38.709Z,979.52
2023-12-11T10:55:38.804Z,979.47
2023-12-11T10:56:38.733Z,979.49
2023-12-11T10:57:38.840Z,979.49
2023-12-11T10:58:38.594Z,979.48
2023-12-11T10:59:38.570Z,979.47
2023-12-11T11:00:38.598Z,979.48
2023-12-11T11:01:38.725Z,979.51
2023-12-11T11:02:38.586Z,979.47
2023-12-11T11:03:38.582Z,979.45
2023-12-11T11:04:38.528Z,979.45
2023-12-11T11:05:38.593Z,979.40
2023-12-11T11:06:38.570Z,979.42
2023-12-11T11:07:38.487Z,979.45
2023-12-11T11:08:38.502Z,979.40
2023-12-11T11:09:38.500Z,979.42
2023-12-11T11:10:38.458Z,979.42
2023-12-11T11:11:38.454Z,979.39
2023-12-11T11:12:38.484Z,979.46
2023-12-11T11:13:38.424Z,979.50
2023-12-11T11:14:38.417Z,979.40
2023-12-11T11:15:38.411Z,979.45
2023-12-11T11:16:38.394Z,979.45
2023-12-11T11:17:38.419Z,979.39
2023-12-11T11:18:38.457Z,979.39
2023-12-11T11:19:38.464Z,979.39
2023-12-11T11:20:38.374Z,979.35
2023-12-11T11:21:38.526Z,979.37
2023-12-11T11:22:41.122Z,979.38
2023-12-11T11:23:38.354Z,979.37
2023-12-11T11:24:38.449Z,979.36
2023-12-11T11:25:38.660Z,979.36
2023-12-11T11:26:38.291Z,979.46
2023-12-11T11:27:38.313Z,979.45
2023-12-11T11:28:38.395Z,979.44
2023-12-11T11:29:38.256Z,979.47
2023-12-11T11:30:38.418Z,979.53
2023-12-11T11:31:38.257Z,979.55
2023-12-11T11:32:38.258Z,979.55
2023-12-11T11:33:38.301Z,979.52
2023-12-11T11:34:38.824Z,979.54
2023-12-11T11:35:38.188Z,979.48
2023-12-11T11:36:38.234Z,979.57
2023-12-11T11:37:38.243Z,979.52
2023-12-11T11:38:38.163Z,979.60
2023-12-11T11:39:41.089Z,979.62
2023-12-11T11:40:38.317Z,979.61
2023-12-11T11:41:38.218Z,979.64
2023-12-11T11:42:38.280Z,979.72
2023-12-11T11:43:38.114Z,979.64
2023-12-11T11:44:38.140Z,979.69
2023-12-11T11:45:38.225Z,979.66
2023-12-11T11:46:38.088Z,979.84
2023-12-11T11:47:38.650Z,979.86
2023-12-11T11:48:38.125Z,979.83
2023-12-11T11:49:38.111Z,979.87
2023-12-11T11:50:38.065Z,979.76
2023-12-11T11:51:38.023Z,979.71
2023-12-11T11:52:38.022Z,979.67
2023-12-11T11:53:38.001Z,979.58
2023-12-11T11:54:38.021Z,979.72
2023-12-11T11:55:38.055Z,979.61
2023-12-11T11:56:37.982Z,979.59
2023-12-11T11:57:38.038Z,979.68
2023-12-11T11:58:37.958Z,979.66
2023-12-11T11:59:37.937Z,979.63
2023-12-11T12:00:37.983Z,979.62
2023-12-11T12:01:38.034Z,979.73
2023-12-11T12:02:37.931Z,979.68
2023-12-11T12:03:37.936Z,979.70
2023-12-11T12:04:37.933Z,979.76
2023-12-11T12:05:38.097Z,979.76
2023-12-11T12:06:37.875Z,979.75
2023-12-11T12:07:37.855Z,979.86
2023-12-11T12:08:37.859Z,979.78
2023-12-11T12:09:37.838Z,979.83
2023-12-11T12:10:37.855Z,979.83
2023-12-11T12:11:37.818Z,979.76
2023-12-11T12:12:37.812Z,979.86
2023-12-11T12:13:37.988Z,979.88
2023-12-11T12:14:37.829Z,979.90
2023-12-11T12:15:37.777Z,979.90
2023-12-11T12:16:37.797Z,979.93
2023-12-11T12:17:38.150Z,979.96
2023-12-11T12:18:37.867Z,979.97
2023-12-11T12:19:37.743Z,980.06
2023-12-11T12:20:37.792Z,980.08
2023-12-11T12:21:37.709Z,980.04
2023-12-11T12:22:37.781Z,980.09
2023-12-11T12:23:37.690Z,980.14
2023-12-11T12:24:37.693Z,980.18
2023-12-11T12:25:37.683Z,980.07
2023-12-11T12:26:37.666Z,980.13
2023-12-11T12:27:37.681Z,980.13
2023-12-11T12:28:37.660Z,980.14